createdAt,value
2018-04-26T00:03:41.801Z,19.50
2018-04-26T00:11:54.107Z,25.17
2018-04-26T00:14:25.321Z,22.37
2018-04-26T00:22:40.367Z,26.55
2018-04-26T00:33:43.077Z,24.70
2018-04-26T00:36:37.498Z,27.97
2018-04-26T00:39:12.847Z,31.83
2018-04-26T00:44:18.053Z,31.37
2018-04-26T00:46:52.028Z,25.27
2018-04-26T00:49:25.783Z,32.97
2018-04-26T00:52:04.903Z,36.00
2018-04-26T00:54:37.566Z,35.83
2018-04-26T00:57:11.937Z,34.60
2018-04-26T00:59:43.644Z,38.40
2018-04-26T01:02:13.896Z,41.87
2018-04-26T01:04:49.944Z,41.33
2018-04-26T01:07:22.857Z,33.93
2018-04-26T01:09:54.067Z,35.93
2018-04-26T01:12:23.708Z,42.40
2018-04-26T01:14:56.757Z,43.00
2018-04-26T01:17:28.945Z,58.13
2018-04-26T01:20:00.351Z,45.40
2018-04-26T01:22:34.222Z,46.13
2018-04-26T01:25:04.229Z,44.00
2018-04-26T01:27:34.883Z,52.13
2018-04-26T01:30:03.648Z,59.67
2018-04-26T01:32:33.016Z,67.93
2018-04-26T01:35:05.121Z,46.13
2018-04-26T01:37:45.283Z,76.70
2018-04-26T02:09:51.496Z,73.23
2018-04-26T02:15:19.954Z,67.93
2018-04-26T02:17:53.622Z,123.07
2018-04-26T02:20:25.029Z,68.57
2018-04-26T02:23:12.553Z,59.47
2018-04-26T02:25:47.504Z,66.30
2018-04-26T02:30:55.189Z,64.80
2018-04-26T02:33:25.043Z,65.63
2018-04-26T02:35:55.534Z,57.40
2018-04-26T02:38:25.271Z,53.83
2018-04-26T02:43:54.664Z,52.70
2018-04-26T02:46:25.465Z,52.70
2018-04-26T02:48:56.279Z,51.00
2018-04-26T02:51:26.702Z,49.30
2018-04-26T03:08:19.154Z,56.70
2018-04-26T03:11:06.536Z,56.73
2018-04-26T03:13:40.608Z,43.60
2018-04-26T03:16:15.365Z,51.80
2018-04-26T03:18:47.047Z,50.10
2018-04-26T03:21:22.840Z,46.23
2018-04-26T03:23:57.119Z,43.00
2018-04-26T03:29:37.784Z,54.55
2018-04-26T03:32:10.939Z,47.50
2018-04-26T03:34:47.065Z,42.60
2018-04-26T03:37:19.345Z,38.63
2018-04-26T03:39:53.119Z,62.25
2018-04-26T03:48:39.588Z,40.50
2018-04-26T03:51:19.532Z,32.47
2018-04-26T03:56:47.193Z,41.90
2018-04-26T04:10:55.640Z,34.07
2018-04-26T04:16:00.458Z,27.97
2018-04-26T04:21:40.387Z,29.30
2018-04-26T04:59:35.160Z,25.20
2018-04-26T05:02:06.947Z,27.60
2018-04-26T05:04:37.820Z,24.43
2018-04-26T05:07:06.282Z,23.20
2018-04-26T05:10:21.685Z,31.35
2018-04-26T05:51:37.023Z,29.90
2018-04-26T05:54:16.988Z,33.57
2018-04-26T05:56:49.802Z,30.77
2018-04-26T05:59:30.944Z,31.40
2018-04-26T06:02:00.669Z,35.00
2018-04-26T06:05:00.626Z,29.77
2018-04-26T06:19:46.821Z,29.43
2018-04-26T06:25:29.058Z,44.80
2018-04-26T06:31:26.484Z,42.37
2018-04-26T06:33:57.151Z,38.80
2018-04-26T06:36:39.665Z,53.60
2018-04-26T06:39:11.152Z,34.97
2018-04-26T06:41:39.119Z,39.13
2018-04-26T06:44:12.659Z,36.47
2018-04-26T06:46:40.605Z,29.03
2018-04-26T06:49:08.498Z,32.63
2018-04-26T06:51:37.116Z,24.50
2018-04-26T06:54:05.147Z,23.07
2018-04-26T06:56:32.801Z,30.33
2018-04-26T06:59:02.248Z,30.93
2018-04-26T07:01:29.963Z,20.57
2018-04-26T07:03:58.257Z,20.93
2018-04-26T07:06:26.316Z,22.63
2018-04-26T07:08:54.861Z,25.30
2018-04-26T07:11:22.617Z,22.50
2018-04-26T07:13:51.306Z,16.63
2018-04-26T07:16:19.110Z,16.00
2018-04-26T07:18:47.846Z,17.93
2018-04-26T07:21:16.391Z,17.50
2018-04-26T07:23:44.023Z,16.10
2018-04-26T07:26:12.058Z,9.53
2018-04-26T07:28:40.985Z,7.90
2018-04-26T07:31:08.841Z,9.23
2018-04-26T07:33:36.437Z,7.60
2018-04-26T07:36:04.080Z,9.07
2018-04-26T07:38:31.745Z,7.17
2018-04-26T07:40:59.473Z,4.23
2018-04-26T07:43:27.839Z,5.93
2018-04-26T07:45:55.411Z,4.67
2018-04-26T07:48:23.949Z,4.93
2018-04-26T07:50:51.841Z,10.70
2018-04-26T07:53:21.061Z,4.93
2018-04-26T07:55:49.502Z,6.63
2018-04-26T07:58:17.345Z,7.40
2018-04-26T08:00:45.832Z,8.73
2018-04-26T08:03:13.811Z,3.10
2018-04-26T08:05:41.408Z,9.27
2018-04-26T08:08:09.004Z,3.93
2018-04-26T08:10:38.192Z,4.10
2018-04-26T08:13:06.702Z,5.13
2018-04-26T08:15:34.296Z,5.57
2018-04-26T08:18:02.639Z,10.70
2018-04-26T08:20:30.134Z,8.87
2018-04-26T08:22:57.779Z,4.93
2018-04-26T08:25:25.357Z,6.10
2018-04-26T08:27:53.086Z,7.13
2018-04-26T08:30:20.824Z,7.03
2018-04-26T08:32:49.780Z,2.90
2018-04-26T08:35:17.461Z,3.60
2018-04-26T08:37:45.062Z,14.70
2018-04-26T08:40:13.931Z,10.03
2018-04-26T08:42:42.816Z,4.60
2018-04-26T08:45:11.231Z,10.23
2018-04-26T08:47:39.159Z,10.30
2018-04-26T08:50:07.604Z,7.43
2018-04-26T08:52:35.501Z,2.50
2018-04-26T08:55:03.262Z,9.30
2018-04-26T08:57:31.085Z,9.50
2018-04-26T08:59:59.154Z,11.83
2018-04-26T09:02:27.803Z,12.40
2018-04-26T09:04:55.763Z,8.40
2018-04-26T09:07:23.677Z,4.20
2018-04-26T09:09:52.472Z,10.10
2018-04-26T09:12:20.686Z,10.63
2018-04-26T09:14:49.827Z,7.23
2018-04-26T09:17:27.083Z,7.83
2018-04-26T09:20:00.583Z,9.43
2018-04-26T09:22:31.116Z,8.13
2018-04-26T09:25:24.969Z,4.70
2018-04-26T09:28:14.942Z,7.53
2018-04-26T09:45:09.773Z,4.30
2018-04-26T09:47:39.773Z,6.60
2018-04-26T09:50:09.795Z,8.60
2018-04-26T09:52:38.907Z,6.67
2018-04-26T09:55:32.945Z,10.33
2018-04-26T09:58:09.896Z,15.15
2018-04-26T10:12:15.829Z,30.60
2018-04-26T10:14:44.233Z,12.57
2018-04-26T10:17:12.170Z,6.97
2018-04-26T10:19:39.820Z,6.30
2018-04-26T10:22:07.341Z,6.33
2018-04-26T10:24:36.196Z,14.10
2018-04-26T10:27:04.685Z,2.15
2018-04-26T10:29:33.492Z,5.13
2018-04-26T10:32:01.373Z,4.10
2018-04-26T10:34:29.002Z,3.70
2018-04-26T10:36:58.662Z,7.13
2018-04-26T10:39:26.686Z,5.20
2018-04-26T10:41:55.459Z,5.60
2018-04-26T10:44:39.192Z,4.87
2018-04-26T10:47:07.725Z,1.60
2018-04-26T10:49:52.722Z,7.80
2018-04-26T10:52:24.994Z,4.53
2018-04-26T10:54:52.932Z,1.50
2018-04-26T10:59:49.099Z,9.90
2018-04-26T11:02:17.904Z,3.70
2018-04-26T11:04:58.695Z,2.90
2018-04-26T11:07:26.569Z,3.13
2018-04-26T11:09:54.378Z,3.27
2018-04-26T11:12:22.194Z,8.00
2018-04-26T11:14:49.949Z,6.83
2018-04-26T11:17:17.778Z,6.40
2018-04-26T11:19:45.622Z,7.40
2018-04-26T11:27:09.911Z,4.43
2018-04-26T11:29:37.404Z,7.40
2018-04-26T11:32:05.883Z,6.00
2018-04-26T11:34:34.507Z,12.63
2018-04-26T11:41:58.213Z,2.70
2018-04-26T11:44:25.846Z,8.10
2018-04-26T11:46:54.244Z,2.73
2018-04-26T11:49:22.071Z,4.77
2018-04-26T11:51:49.658Z,4.30
2018-04-26T11:54:18.173Z,3.23
2018-04-26T11:56:46.813Z,5.67
2018-04-26T11:59:16.365Z,3.07
2018-04-26T12:01:43.959Z,8.10
2018-04-26T12:04:11.851Z,3.73
2018-04-26T12:06:40.127Z,3.27
2018-04-26T12:09:08.584Z,6.60
2018-04-26T12:11:36.490Z,2.93
2018-04-26T12:14:04.868Z,5.80
2018-04-26T12:16:33.178Z,9.70
2018-04-26T12:19:01.877Z,5.70
2018-04-26T12:21:29.485Z,3.80
2018-04-26T12:23:57.233Z,6.13
2018-04-26T12:26:24.772Z,9.33
2018-04-26T12:28:52.509Z,1.87
2018-04-26T12:31:20.142Z,4.43
2018-04-26T12:33:49.769Z,6.00
2018-04-26T12:36:18.451Z,2.80
2018-04-26T12:38:47.058Z,8.40
2018-04-26T12:43:42.040Z,4.97
2018-04-26T12:46:10.543Z,3.70
2018-04-26T13:00:57.290Z,2.20
2018-04-26T13:03:25.704Z,5.37
2018-04-26T13:05:54.103Z,5.70
2018-04-26T13:08:22.399Z,5.47
2018-04-26T13:10:51.140Z,7.30
2018-04-26T13:13:20.095Z,15.60
2018-04-26T13:15:48.634Z,4.50
2018-04-26T13:18:17.280Z,6.30
2018-04-26T13:20:45.742Z,10.93
2018-04-26T13:23:14.023Z,1.50
2018-04-26T13:25:42.495Z,6.83
2018-04-26T13:28:11.696Z,10.93
2018-04-26T13:30:40.743Z,4.30
2018-04-26T13:33:09.447Z,9.47
2018-04-26T13:35:37.779Z,6.83
2018-04-26T13:38:05.938Z,9.00
2018-04-26T13:40:33.461Z,7.90
2018-04-26T13:43:03.095Z,8.33
2018-04-26T13:45:32.840Z,7.97
2018-04-26T13:48:00.956Z,9.17
2018-04-26T13:50:29.409Z,7.43
2018-04-26T13:52:57.364Z,9.13
2018-04-26T13:55:25.007Z,7.17
2018-04-26T13:57:52.742Z,4.43
2018-04-26T14:00:21.347Z,8.63
2018-04-26T14:02:51.000Z,5.47
2018-04-26T14:05:18.948Z,8.13
2018-04-26T14:07:46.733Z,5.70
2018-04-26T14:10:14.245Z,10.90
2018-04-26T14:12:41.745Z,5.80
2018-04-26T14:15:09.515Z,8.03
2018-04-26T14:17:37.867Z,9.57
2018-04-26T14:20:05.568Z,2.70
2018-04-26T14:22:33.978Z,3.40
2018-04-26T14:25:02.335Z,4.30
2018-04-26T14:27:32.365Z,3.07
2018-04-26T14:30:01.657Z,3.57
2018-04-26T14:32:29.282Z,5.33
2018-04-26T14:34:58.337Z,2.10
2018-04-26T14:37:26.119Z,1.97
2018-04-26T14:39:54.508Z,4.67
2018-04-26T14:42:22.380Z,7.50
2018-04-26T14:44:50.468Z,10.60
2018-04-26T14:47:18.453Z,4.37
2018-04-26T14:49:46.062Z,5.93
2018-04-26T14:52:13.956Z,6.33
2018-04-26T14:54:41.924Z,5.07
2018-04-26T14:57:09.520Z,11.03
2018-04-26T14:59:37.594Z,7.73
2018-04-26T15:02:06.253Z,5.40
2018-04-26T15:04:35.247Z,7.00
2018-04-26T15:07:03.111Z,6.47
2018-04-26T15:09:30.768Z,4.77
2018-04-26T15:11:58.698Z,5.50
2018-04-26T15:14:27.022Z,5.83
2018-04-26T15:16:54.670Z,3.40
2018-04-26T15:19:23.039Z,4.77
2018-04-26T15:21:51.763Z,10.77
2018-04-26T15:24:20.607Z,4.57
2018-04-26T15:41:23.934Z,3.83
2018-04-26T15:43:51.447Z,3.70
2018-04-26T15:46:19.620Z,6.40
2018-04-26T15:48:48.591Z,4.93
2018-04-26T15:51:16.115Z,3.13
2018-04-26T15:53:55.537Z,4.40
2018-04-26T15:56:34.984Z,4.00
2018-04-26T15:59:28.236Z,3.10
2018-04-26T16:02:22.861Z,2.60
2018-04-26T16:08:01.451Z,7.17
2018-04-26T16:10:46.509Z,5.03
2018-04-26T16:13:31.719Z,3.10
2018-04-26T16:16:17.019Z,3.20
2018-04-26T16:18:54.457Z,4.40
2018-04-26T16:27:26.312Z,8.73
2018-04-26T16:30:08.064Z,4.43
2018-04-26T16:35:45.608Z,4.83
2018-04-26T16:41:05.056Z,2.90
2018-04-26T16:43:32.569Z,3.20
2018-04-26T16:46:02.433Z,3.90
2018-04-26T16:48:46.390Z,3.63
2018-04-26T16:51:13.977Z,3.60
2018-04-26T16:53:42.246Z,3.30
2018-04-26T16:56:10.521Z,5.90
2018-04-26T16:58:38.807Z,8.30
2018-04-26T17:01:07.840Z,8.90
2018-04-26T17:03:35.398Z,5.73
2018-04-26T17:06:03.035Z,6.53
2018-04-26T17:08:30.542Z,6.03
2018-04-26T17:10:58.049Z,10.33
2018-04-26T17:13:26.430Z,3.07
2018-04-26T17:15:54.688Z,5.17
2018-04-26T17:18:22.296Z,3.37
2018-04-26T17:20:50.976Z,3.73
2018-04-26T17:23:19.606Z,5.07
2018-04-26T17:25:48.889Z,7.10
2018-04-26T17:28:17.286Z,2.30
2018-04-26T17:30:46.638Z,3.23
2018-04-26T17:35:48.132Z,2.37
2018-04-26T17:38:16.082Z,1.97
2018-04-26T17:40:45.318Z,2.37
2018-04-26T17:43:13.419Z,2.50
2018-04-26T17:45:41.011Z,6.93
2018-04-26T17:48:09.547Z,4.23
2018-04-26T17:50:37.217Z,5.40
2018-04-26T17:53:05.693Z,5.10
2018-04-26T17:55:34.139Z,5.40
2018-04-26T17:58:03.007Z,2.60
2018-04-26T18:00:30.545Z,4.73
2018-04-26T18:02:58.913Z,2.17
2018-04-26T18:05:27.215Z,4.60
2018-04-26T18:07:55.503Z,4.30
2018-04-26T18:10:23.751Z,5.43
2018-04-26T18:12:52.130Z,3.27
2018-04-26T18:15:19.731Z,4.83
2018-04-26T18:17:47.241Z,3.53
2018-04-26T18:20:14.785Z,2.40
2018-04-26T18:22:42.510Z,5.23
2018-04-26T18:25:10.117Z,7.77
2018-04-26T18:27:37.951Z,8.07
2018-04-26T18:30:08.353Z,5.97
2018-04-26T18:32:36.676Z,7.00
2018-04-26T18:35:04.297Z,3.73
2018-04-26T18:37:32.566Z,4.40
2018-04-26T18:40:05.123Z,5.00
2018-04-26T18:42:33.126Z,3.37
2018-04-26T18:45:02.066Z,5.53
2018-04-26T18:47:29.560Z,5.90
2018-04-26T18:49:57.078Z,3.80
2018-04-26T18:52:24.603Z,4.40
2018-04-26T18:54:52.925Z,7.20
2018-04-26T18:57:20.471Z,6.13
2018-04-26T18:59:47.988Z,8.37
2018-04-26T19:02:16.257Z,6.63
2018-04-26T19:04:43.817Z,12.20
2018-04-26T19:07:11.360Z,8.03
2018-04-26T19:09:38.869Z,6.00
2018-04-26T19:12:07.198Z,5.97
2018-04-26T19:14:34.709Z,6.83
2018-04-26T19:17:02.217Z,6.70
2018-04-26T19:19:29.751Z,7.67
2018-04-26T19:21:57.307Z,10.77
2018-04-26T19:24:24.935Z,5.17
2018-04-26T19:26:52.469Z,8.10
2018-04-26T19:29:19.984Z,8.73
2018-04-26T19:31:47.594Z,5.60
2018-04-26T19:34:15.682Z,6.47
2018-04-26T19:36:43.196Z,9.10
2018-04-26T19:39:10.708Z,12.40
2018-04-26T19:41:38.989Z,5.50
2018-04-26T19:44:07.304Z,10.57
2018-04-26T19:46:34.785Z,13.87
2018-04-26T19:49:02.298Z,10.17
2018-04-26T19:51:31.352Z,7.63
2018-04-26T19:53:58.864Z,12.03
2018-04-26T19:56:26.345Z,13.67
2018-04-26T19:58:53.830Z,6.87
2018-04-26T20:01:21.348Z,8.87
2018-04-26T20:03:48.906Z,8.43
2018-04-26T20:06:16.504Z,8.47
2018-04-26T20:08:44.042Z,9.17
2018-04-26T20:11:12.289Z,16.00
2018-04-26T20:13:40.585Z,7.30
2018-04-26T20:16:08.118Z,6.63
2018-04-26T20:18:36.395Z,9.43
2018-04-26T20:21:04.795Z,16.57
2018-04-26T20:23:32.311Z,12.33
2018-04-26T20:25:59.865Z,7.80
2018-04-26T20:28:27.488Z,13.10
2018-04-26T20:30:54.989Z,10.10
2018-04-26T20:33:22.506Z,15.77
2018-04-26T20:35:50.025Z,10.00
2018-04-26T20:38:19.045Z,10.10
2018-04-26T20:40:46.613Z,17.23
2018-04-26T20:43:14.242Z,11.70
2018-04-26T20:45:41.731Z,11.80
2018-04-26T20:48:09.999Z,8.03
2018-04-26T20:50:38.288Z,10.30
2018-04-26T20:53:06.564Z,17.70
2018-04-26T20:55:34.836Z,6.50
2018-04-26T20:58:03.289Z,9.33
2018-04-26T21:00:30.792Z,7.23
2018-04-26T21:02:58.317Z,12.63
2018-04-26T21:05:25.843Z,16.03
2018-04-26T21:07:53.379Z,10.30
2018-04-26T21:10:20.875Z,12.07
2018-04-26T21:12:48.383Z,14.63
2018-04-26T21:15:15.866Z,11.57
2018-04-26T21:17:43.381Z,13.37
2018-04-26T21:20:11.686Z,11.23
2018-04-26T21:22:39.216Z,16.80
2018-04-26T21:25:07.699Z,9.40
2018-04-26T21:27:35.235Z,15.70
2018-04-26T21:30:02.833Z,11.30
2018-04-26T21:32:31.125Z,10.87
2018-04-26T21:34:58.635Z,15.40
2018-04-26T21:37:26.124Z,10.77
2018-04-26T21:39:54.394Z,11.67
2018-04-26T21:42:21.874Z,16.57
2018-04-26T21:44:49.380Z,9.40
2018-04-26T21:47:16.929Z,8.57
2018-04-26T21:49:44.029Z,17.83
2018-04-26T21:52:18.047Z,15.73
2018-04-26T21:54:52.062Z,11.00
2018-04-26T21:57:26.013Z,15.03
2018-04-26T21:59:59.356Z,11.60
2018-04-26T22:02:27.229Z,10.00
2018-04-26T22:05:10.357Z,9.73
2018-04-26T22:07:38.602Z,11.40
2018-04-26T22:10:06.182Z,11.73
2018-04-26T22:12:33.716Z,11.60
2018-04-26T22:15:01.213Z,21.13
2018-04-26T22:17:29.611Z,11.53
2018-04-26T22:19:57.105Z,17.53
2018-04-26T22:22:24.591Z,17.10
2018-04-26T22:24:52.082Z,13.30
2018-04-26T22:27:20.346Z,12.70
2018-04-26T22:29:48.594Z,17.60
2018-04-26T22:32:16.092Z,14.30
2018-04-26T22:34:44.343Z,17.50
2018-04-26T22:37:11.852Z,9.73
2018-04-26T22:39:39.343Z,10.30
2018-04-26T22:42:06.924Z,11.77
2018-04-26T22:44:34.432Z,12.60
2018-04-26T22:47:01.909Z,9.27
2018-04-26T22:49:29.451Z,12.37
2018-04-26T22:51:56.937Z,14.70
2018-04-26T22:54:24.416Z,11.93
2018-04-26T22:56:52.022Z,13.80
2018-04-26T22:59:19.539Z,11.43
2018-04-26T23:01:47.106Z,13.40
2018-04-26T23:04:14.614Z,13.50
2018-04-26T23:06:42.123Z,13.70
2018-04-26T23:09:09.625Z,12.50
2018-04-26T23:11:37.117Z,20.77
2018-04-26T23:14:04.626Z,14.83
2018-04-26T23:16:32.872Z,17.13
2018-04-26T23:19:00.368Z,15.07
2018-04-26T23:21:27.875Z,10.97
2018-04-26T23:23:55.382Z,16.90
2018-04-26T23:26:23.638Z,12.53
2018-04-26T23:28:51.158Z,12.57
2018-04-26T23:31:18.653Z,11.60
2018-04-26T23:33:46.123Z,16.07
2018-04-26T23:36:14.409Z,12.57
2018-04-26T23:38:42.689Z,15.57
2018-04-26T23:41:10.956Z,11.63
2018-04-26T23:43:38.436Z,12.23
2018-04-26T23:46:06.705Z,10.37
2018-04-26T23:48:34.969Z,9.77
2018-04-26T23:51:03.255Z,14.20
2018-04-26T23:53:31.525Z,14.73
2018-04-26T23:56:00.007Z,9.03
2018-04-26T23:58:28.355Z,20.73
